Time;durP1;ratioP1;P1;durP2;ratioP2;P2;SDS_P1;SDS_P2;PMS_P1;PMS_P2;Temp;Humidity;BMP_temperature;BMP_pressure;BME280_temperature;BME280_humidity;BME280_pressure;Samples;Min_cycle;Max_cycle;Signal;HPM_P1;HPM_P2
2023/08/22 00:04:11;;;;;;;10.95;1.63;;;;;;;;;;20912437;28;20076;-63
2023/08/22 00:14:12;;;;;;;11.90;2.60;;;;;;;;;;20911918;28;20051;-63
2023/08/22 00:24:13;;;;;;;6.95;1.30;;;;;;;;;;20911595;28;20069;-63
2023/08/22 00:34:15;;;;;;;11.57;2.45;;;;;;;;;;20921270;28;20041;-63
2023/08/22 00:44:16;;;;;;;9.93;2.10;;;;;;;;;;20924294;28;20413;-63
2023/08/22 00:54:18;;;;;;;9.25;1.95;;;;;;;;;;20924009;28;20468;-64
2023/08/22 01:04:19;;;;;;;10.05;2.10;;;;;;;;;;20924023;28;20067;-63
2023/08/22 01:14:21;;;;;;;5.25;2.00;;;;;;;;;;20923458;28;20041;-63
2023/08/22 01:24:22;;;;;;;8.68;1.85;;;;;;;;;;20921228;28;20047;-63
2023/08/22 01:34:27;;;;;;;9.63;2.17;;;;;;;;;;20920792;28;20037;-63
2023/08/22 01:44:28;;;;;;;;;;;;;;;;;;20920606;28;20065;-64
2023/08/22 01:54:30;;;;;;;10.65;2.28;;;;;;;;;;20919517;28;19925;-63
2023/08/22 02:04:31;;;;;;;6.97;1.98;;;;;;;;;;20919762;28;20111;-63
2023/08/22 02:14:32;;;;;;;7.57;2.50;;;;;;;;;;20917346;28;20083;-63
2023/08/22 02:24:33;;;;;;;7.47;2.28;;;;;;;;;;20917984;28;20049;-63
2023/08/22 02:34:34;;;;;;;7.70;2.63;;;;;;;;;;20916044;28;20037;-63
2023/08/22 02:44:35;;;;;;;5.72;2.65;;;;;;;;;;20915283;28;20047;-63
2023/08/22 02:54:36;;;;;;;8.35;2.40;;;;;;;;;;20914725;28;20060;-64
2023/08/22 03:04:37;;;;;;;9.70;2.40;;;;;;;;;;20915335;28;20501;-63
2023/08/22 03:14:39;;;;;;;10.48;2.30;;;;;;;;;;20914492;28;20040;-63
2023/08/22 03:24:40;;;;;;;10.63;2.35;;;;;;;;;;20913066;28;20045;-64
2023/08/22 03:34:41;;;;;;;6.80;2.67;;;;;;;;;;20913432;28;20037;-63
2023/08/22 03:44:42;;;;;;;8.93;2.45;;;;;;;;;;20912194;28;20049;-62
2023/08/22 03:54:43;;;;;;;11.82;2.17;;;;;;;;;;20911640;28;20057;-63
2023/08/22 04:04:44;;;;;;;14.30;2.88;;;;;;;;;;20915998;28;20041;-63
2023/08/22 04:14:46;;;;;;;7.38;2.67;;;;;;;;;;20928213;28;20542;-62
2023/08/22 04:24:47;;;;;;;5.35;1.80;;;;;;;;;;20927253;28;20552;-64
2023/08/22 04:34:48;;;;;;;6.90;2.80;;;;;;;;;;20926553;28;20040;-63
2023/08/22 04:44:49;;;;;;;8.13;2.17;;;;;;;;;;20925331;28;20052;-64
2023/08/22 04:54:50;;;;;;;10.73;2.75;;;;;;;;;;20925497;28;20059;-64
2023/08/22 05:04:51;;;;;;;7.03;2.25;;;;;;;;;;20922798;28;20056;-63
2023/08/22 05:14:52;;;;;;;9.30;2.10;;;;;;;;;;20920374;28;20041;-63
2023/08/22 05:24:53;;;;;;;6.50;2.25;;;;;;;;;;20922021;28;20179;-66
2023/08/22 05:34:54;;;;;;;11.68;2.20;;;;;;;;;;20921464;28;20045;-63
2023/08/22 05:44:56;;;;;;;5.28;2.05;;;;;;;;;;20920888;28;20053;-64
2023/08/22 05:54:57;;;;;;;6.07;2.03;;;;;;;;;;20918358;28;20071;-64
2023/08/22 06:04:58;;;;;;;5.68;2.20;;;;;;;;;;20919273;28;20113;-62
2023/08/22 06:14:59;;;;;;;5.95;2.30;;;;;;;;;;20916695;28;20072;-63
2023/08/22 06:25:04;;;;;;;10.88;2.28;;;;;;;;;;20916047;28;20056;-63
2023/08/22 06:35:07;;;;;;;13.68;2.70;;;;;;;;;;20916750;28;20482;-64
2023/08/22 06:45:08;;;;;;;11.02;2.65;;;;;;;;;;20916131;28;20411;-64
2023/08/22 06:55:10;;;;;;;18.52;2.78;;;;;;;;;;20914133;28;20099;-64
2023/08/22 07:05:12;;;;;;;13.35;2.85;;;;;;;;;;20914780;28;20086;-64
2023/08/22 07:15:13;;;;;;;9.98;2.85;;;;;;;;;;20914348;28;20048;-63
2023/08/22 07:25:14;;;;;;;14.82;2.90;;;;;;;;;;20913990;28;20406;-63
2023/08/22 07:35:15;;;;;;;11.25;2.63;;;;;;;;;;20913645;28;20479;-63
2023/08/22 07:45:17;;;;;;;15.70;3.05;;;;;;;;;;20926553;28;20057;-63
2023/08/22 07:55:18;;;;;;;12.50;3.00;;;;;;;;;;20928782;28;20451;-64
2023/08/22 08:05:20;;;;;;;17.42;3.08;;;;;;;;;;20929036;28;20060;-63
2023/08/22 08:15:21;;;;;;;10.15;2.47;;;;;;;;;;20928596;28;20045;-63
2023/08/22 08:25:22;;;;;;;9.45;2.60;;;;;;;;;;20927384;28;20053;-64
2023/08/22 08:35:23;;;;;;;9.90;2.20;;;;;;;;;;20926393;28;20045;-63
2023/08/22 08:45:24;;;;;;;6.65;1.83;;;;;;;;;;20924762;28;20131;-64
2023/08/22 08:55:26;;;;;;;7.82;2.08;;;;;;;;;;20925742;28;20057;-63
2023/08/22 09:05:29;;;;;;;10.48;2.30;;;;;;;;;;20924802;28;20059;-63
2023/08/22 09:15:30;;;;;;;11.07;2.88;;;;;;;;;;20923533;28;20056;-63
2023/08/22 09:25:40;;;;;;;12.02;2.42;;;;;;;;;;20922516;28;20041;-64
2023/08/22 09:35:42;;;;;;;10.13;2.50;;;;;;;;;;20920502;28;20048;-65
2023/08/22 09:45:44;;;;;;;8.88;2.35;;;;;;;;;;20920984;28;20045;-64
2023/08/22 09:55:45;;;;;;;7.05;2.05;;;;;;;;;;20918726;28;20142;-64
2023/08/22 10:05:47;;;;;;;7.75;1.80;;;;;;;;;;20918377;28;20397;-65
2023/08/22 10:15:49;;;;;;;7.72;2.08;;;;;;;;;;20918685;28;20082;-63
2023/08/22 10:25:51;;;;;;;7.57;2.15;;;;;;;;;;20916861;28;20081;-63
2023/08/22 10:36:12;;;;;;;10.85;1.83;;;;;;;;;;20918017;28;20124;-63
2023/08/22 10:46:14;;;;;;;6.63;2.15;;;;;;;;;;20911250;28;20049;-64
2023/08/22 10:56:25;;;;;;;11.30;2.15;;;;;;;;;;20915424;28;20079;-63
2023/08/22 11:06:26;;;;;;;9.48;2.20;;;;;;;;;;20915294;28;20393;-64
2023/08/22 11:16:27;;;;;;;13.95;2.83;;;;;;;;;;20913723;28;20095;-63
2023/08/22 11:26:28;;;;;;;13.27;2.15;;;;;;;;;;20914195;28;20522;-64
2023/08/22 11:36:30;;;;;;;9.80;2.58;;;;;;;;;;20913801;28;20037;-64
2023/08/22 11:46:33;;;;;;;18.42;2.05;;;;;;;;;;20913663;28;20494;-64
2023/08/22 11:56:34;;;;;;;5.65;2.15;;;;;;;;;;20911678;28;20053;-64
2023/08/22 12:06:35;;;;;;;4.60;1.95;;;;;;;;;;20912787;28;20056;-64
2023/08/22 12:16:36;;;;;;;5.20;1.90;;;;;;;;;;20911957;28;20480;-64
2023/08/22 12:26:38;;;;;;;7.38;1.90;;;;;;;;;;20917875;28;20110;-64
2023/08/22 12:36:39;;;;;;;11.60;2.60;;;;;;;;;;20927116;28;20547;-64
2023/08/22 12:46:40;;;;;;;6.75;2.10;;;;;;;;;;20926228;28;20056;-64
2023/08/22 12:56:41;;;;;;;6.40;2.00;;;;;;;;;;20926116;28;20597;-63
2023/08/22 13:06:42;;;;;;;8.20;1.83;;;;;;;;;;20924407;28;20534;-65
2023/08/22 13:16:43;;;;;;;7.30;1.90;;;;;;;;;;20923755;28;20049;-64
2023/08/22 13:26:45;;;;;;;5.93;1.60;;;;;;;;;;20923008;28;20048;-64
2023/08/22 13:36:46;;;;;;;6.15;2.20;;;;;;;;;;20921232;28;20045;-64
2023/08/22 13:46:47;;;;;;;3.92;1.98;;;;;;;;;;20921220;28;20044;-65
2023/08/22 13:56:49;;;;;;;5.45;1.80;;;;;;;;;;20918719;28;20136;-64
2023/08/22 14:06:51;;;;;;;5.00;1.95;;;;;;;;;;20919363;28;20115;-64
2023/08/22 14:16:53;;;;;;;4.87;2.03;;;;;;;;;;20918852;28;20045;-64
2023/08/22 14:26:54;;;;;;;6.60;2.90;;;;;;;;;;20916023;28;20087;-63
2023/08/22 14:36:56;;;;;;;11.40;2.10;;;;;;;;;;20917086;28;20048;-64
2023/08/22 14:46:57;;;;;;;5.25;2.10;;;;;;;;;;20915995;28;20052;-63
2023/08/22 14:56:58;;;;;;;6.60;1.58;;;;;;;;;;20914347;28;20053;-63
2023/08/22 15:07:00;;;;;;;8.35;2.13;;;;;;;;;;20915182;28;20045;-64
2023/08/22 15:17:01;;;;;;;5.90;2.13;;;;;;;;;;20912673;28;20049;-64
2023/08/22 15:27:02;;;;;;;6.53;2.08;;;;;;;;;;20911800;28;20045;-65
2023/08/22 15:37:03;;;;;;;9.32;3.05;;;;;;;;;;20912820;28;20116;-63
2023/08/22 15:47:04;;;;;;;4.40;1.77;;;;;;;;;;20913421;28;20049;-64
2023/08/22 15:57:05;;;;;;;4.00;1.60;;;;;;;;;;20911699;28;20146;-64
2023/08/22 16:07:07;;;;;;;6.88;1.63;;;;;;;;;;20928100;28;20056;-65
2023/08/22 16:17:08;;;;;;;4.57;1.60;;;;;;;;;;20928079;28;20044;-64
2023/08/22 16:27:09;;;;;;;4.93;2.00;;;;;;;;;;20926305;28;20045;-64
2023/08/22 16:37:10;;;;;;;7.45;2.33;;;;;;;;;;20925347;28;20075;-63
2023/08/22 16:47:11;;;;;;;8.32;2.00;;;;;;;;;;20926124;28;20544;-64
2023/08/22 16:57:12;;;;;;;8.70;2.35;;;;;;;;;;20923582;28;20141;-65
2023/08/22 17:07:14;;;;;;;6.97;2.42;;;;;;;;;;20924432;28;20044;-64
2023/08/22 17:17:15;;;;;;;3.97;2.20;;;;;;;;;;20921353;28;20081;-64
2023/08/22 17:27:16;;;;;;;6.15;2.10;;;;;;;;;;20923022;28;20075;-63
2023/08/22 17:37:17;;;;;;;8.05;2.85;;;;;;;;;;20922247;28;20086;-63
2023/08/22 17:47:18;;;;;;;9.65;2.53;;;;;;;;;;20921588;28;20505;-64
2023/08/22 17:57:19;;;;;;;5.82;2.30;;;;;;;;;;20919196;28;20122;-65
2023/08/22 18:07:20;;;;;;;7.38;2.38;;;;;;;;;;20919986;28;20572;-64
2023/08/22 18:17:21;;;;;;;7.60;2.53;;;;;;;;;;20919071;28;20521;-63
2023/08/22 18:27:22;;;;;;;10.85;2.70;;;;;;;;;;20917674;28;20120;-64
2023/08/22 18:37:24;;;;;;;8.98;2.78;;;;;;;;;;20916257;28;20040;-64
2023/08/22 18:47:25;;;;;;;10.13;3.22;;;;;;;;;;20915553;28;20052;-64
2023/08/22 18:57:27;;;;;;;6.57;3.05;;;;;;;;;;20917145;28;20045;-64
2023/08/22 19:07:29;;;;;;;9.88;3.00;;;;;;;;;;20915830;28;20041;-64
2023/08/22 19:17:30;;;;;;;6.70;3.15;;;;;;;;;;20914909;28;20040;-63
2023/08/22 19:27:31;;;;;;;6.15;2.72;;;;;;;;;;20914479;28;20128;-64
2023/08/22 19:37:32;;;;;;;8.63;2.50;;;;;;;;;;20913065;28;20124;-63
2023/08/22 19:47:34;;;;;;;8.25;2.38;;;;;;;;;;20913416;28;20490;-64
2023/08/22 19:57:35;;;;;;;11.15;2.28;;;;;;;;;;20911442;28;20053;-63
2023/08/22 20:07:36;;;;;;;8.95;3.03;;;;;;;;;;20911584;28;20048;-63
2023/08/22 20:17:37;;;;;;;9.38;3.10;;;;;;;;;;20911165;28;20051;-64
2023/08/22 20:27:38;;;;;;;8.93;3.42;;;;;;;;;;20911803;28;20418;-64
2023/08/22 20:37:39;;;;;;;9.73;2.92;;;;;;;;;;20912160;28;20445;-64
2023/08/22 20:47:42;;;;;;;13.23;3.13;;;;;;;;;;20917276;28;20506;-63
2023/08/22 20:57:43;;;;;;;5.95;2.60;;;;;;;;;;20926682;28;20128;-64
2023/08/22 21:07:44;;;;;;;10.02;2.53;;;;;;;;;;20923403;28;20060;-63
2023/08/22 21:17:45;;;;;;;7.32;2.28;;;;;;;;;;20922452;28;20045;-64
2023/08/22 21:27:47;;;;;;;5.68;2.38;;;;;;;;;;20923361;28;20486;-64
2023/08/22 21:37:48;;;;;;;5.72;2.60;;;;;;;;;;20922436;28;20128;-63
2023/08/22 21:47:49;;;;;;;6.28;3.15;;;;;;;;;;20920715;28;20053;-65
2023/08/22 21:57:50;;;;;;;7.00;2.53;;;;;;;;;;20921027;28;20053;-63
2023/08/22 22:07:51;;;;;;;5.82;2.58;;;;;;;;;;20920128;28;20510;-63
2023/08/22 22:17:53;;;;;;;5.32;2.30;;;;;;;;;;20917998;28;20044;-64
2023/08/22 22:27:54;;;;;;;7.63;2.20;;;;;;;;;;20918612;28;20041;-64
2023/08/22 22:37:55;;;;;;;5.05;1.90;;;;;;;;;;20917586;28;20040;-63
2023/08/22 22:47:56;;;;;;;5.05;2.88;;;;;;;;;;20916004;28;20048;-64
2023/08/22 22:57:58;;;;;;;8.35;2.30;;;;;;;;;;20915666;28;20045;-64
2023/08/22 23:07:59;;;;;;;4.47;1.88;;;;;;;;;;20915641;28;20439;-63
2023/08/22 23:18:00;;;;;;;5.53;1.60;;;;;;;;;;20916056;28;20490;-63
2023/08/22 23:28:01;;;;;;;5.15;1.45;;;;;;;;;;20913216;28;20051;-63
2023/08/22 23:38:03;;;;;;;5.63;2.22;;;;;;;;;;20912817;28;20041;-63
2023/08/22 23:48:04;;;;;;;8.52;2.13;;;;;;;;;;20912389;28;20045;-63
2023/08/22 23:58:05;;;;;;;7.63;3.90;;;;;;;;;;20911929;28;20053;-63
